Time;durP1;ratioP1;P1;durP2;ratioP2;P2;SDS_P1;SDS_P2;PMS_P1;PMS_P2;Temp;Humidity;BMP_temperature;BMP_pressure;BME280_temperature;BME280_humidity;BME280_pressure;Samples;Min_cycle;Max_cycle;Signal;HPM_P1;HPM_P2
2022/10/17 00:00:48;;;;;;;28.07;16.23;;;14.10;99.90;;;;;;4772772;30;20611;-77
2022/10/17 00:03:16;;;;;;;27.50;16.83;;;14.10;99.90;;;;;;4789228;30;20203;-76
2022/10/17 00:05:45;;;;;;;27.53;16.73;;;14.00;99.90;;;;;;4772791;30;20219;-75
2022/10/17 00:08:13;;;;;;;27.60;16.73;;;14.00;99.90;;;;;;4772944;30;20215;-81
2022/10/17 00:10:42;;;;;;;26.73;16.77;;;14.00;99.90;;;;;;4773156;30;20310;-86
2022/10/17 00:13:10;;;;;;;27.23;16.03;;;14.00;99.90;;;;;;4772436;30;20215;-85
2022/10/17 00:15:37;;;;;;;26.13;16.47;;;14.00;99.90;;;;;;4772639;30;20566;-84
2022/10/17 00:18:04;;;;;;;25.27;16.07;;;14.00;99.90;;;;;;4773176;30;20200;-86
2022/10/17 00:20:34;;;;;;;26.30;16.80;;;13.90;99.90;;;;;;4771741;29;20659;-86
2022/10/17 00:23:01;;;;;;;28.07;17.10;;;13.90;99.90;;;;;;4771568;30;20698;-85
2022/10/17 00:25:28;;;;;;;26.07;16.20;;;13.90;99.90;;;;;;4769636;30;20681;-85
2022/10/17 00:27:55;;;;;;;30.07;17.57;;;13.90;99.90;;;;;;4773534;30;20222;-86
2022/10/17 00:30:22;;;;;;;28.50;16.77;;;13.90;99.90;;;;;;4774042;30;20218;-81
2022/10/17 00:32:49;;;;;;;26.73;16.33;;;13.80;99.90;;;;;;4772640;30;20584;-82
2022/10/17 00:35:16;;;;;;;27.17;16.37;;;13.80;99.90;;;;;;4788291;30;20272;-84
2022/10/17 00:37:43;;;;;;;27.47;16.90;;;13.80;99.90;;;;;;4772261;30;20206;-83
2022/10/17 00:40:10;;;;;;;31.07;18.27;;;13.80;99.90;;;;;;4772381;30;20236;-82
2022/10/17 00:42:37;;;;;;;27.67;17.17;;;13.80;99.90;;;;;;4772392;30;20673;-83
2022/10/17 00:45:21;;;;;;;30.97;17.37;;;13.70;99.90;;;;;;4757710;30;20277;-81
2022/10/17 00:47:54;;;;;;;28.00;17.00;;;13.70;99.90;;;;;;4771877;30;20702;-84
2022/10/17 00:50:23;;;;;;;28.37;16.80;;;13.70;99.90;;;;;;4772427;30;20273;-83
2022/10/17 00:52:51;;;;;;;28.67;17.40;;;13.60;99.90;;;;;;4771931;30;20261;-82
2022/10/17 00:55:29;;;;;;;28.77;17.03;;;13.60;99.90;;;;;;4772048;30;20223;-82
2022/10/17 00:57:58;;;;;;;28.77;17.33;;;13.60;99.90;;;;;;4788384;30;20733;-80
2022/10/17 01:00:25;;;;;;;25.87;17.10;;;13.60;99.90;;;;;;4788148;29;20199;-83
2022/10/17 01:02:52;;;;;;;28.57;17.70;;;13.60;99.90;;;;;;4788339;30;20207;-82
2022/10/17 01:05:20;;;;;;;29.60;17.07;;;13.60;99.90;;;;;;4772606;30;20248;-82
2022/10/17 01:07:49;;;;;;;28.90;16.67;;;13.60;99.90;;;;;;4772048;30;20224;-83
2022/10/17 01:10:17;;;;;;;26.40;17.20;;;13.60;99.90;;;;;;4771840;30;20200;-82
2022/10/17 01:13:15;;;;;;;28.73;17.17;;;13.60;99.90;;;;;;4772144;30;20212;-86
2022/10/17 01:15:55;;;;;;;30.00;17.67;;;13.60;99.90;;;;;;4772371;30;20549;-84
2022/10/17 01:19:07;;;;;;;29.50;17.57;;;13.50;99.90;;;;;;4772096;30;20204;-85
2022/10/17 01:21:55;;;;;;;27.70;17.27;;;13.60;99.90;;;;;;4771919;30;20207;-84
2022/10/17 01:24:39;;;;;;;28.83;17.93;;;13.60;99.90;;;;;;4772717;30;20210;-85
2022/10/17 01:27:36;;;;;;;30.83;17.77;;;13.60;99.90;;;;;;4772523;30;20224;-83
2022/10/17 01:30:20;;;;;;;31.37;17.27;;;13.70;99.90;;;;;;4787838;30;20203;-86
2022/10/17 01:32:56;;;;;;;27.83;17.70;;;13.70;99.90;;;;;;4771738;30;20205;-86
2022/10/17 01:36:03;;;;;;;29.63;17.57;;;13.70;99.90;;;;;;4772491;30;20246;-86
2022/10/17 01:38:46;;;;;;;30.27;18.13;;;13.70;99.90;;;;;;4701137;30;20244;-86
2022/10/17 01:41:24;;;;;;;30.37;17.40;;;13.80;99.90;;;;;;4701404;30;20211;-86
2022/10/17 01:44:20;;;;;;;29.87;17.80;;;13.80;99.90;;;;;;4705659;30;20222;-85
2022/10/17 01:46:53;;;;;;;29.57;18.20;;;13.90;99.90;;;;;;4701200;30;20236;-86
2022/10/17 01:49:26;;;;;;;29.53;17.60;;;14.00;99.90;;;;;;4701858;30;20215;-83
2022/10/17 01:51:59;;;;;;;30.23;17.67;;;14.00;99.90;;;;;;4701065;30;20293;-85
2022/10/17 01:54:52;;;;;;;27.57;17.30;;;14.00;99.90;;;;;;4700994;30;20319;-85
2022/10/17 01:57:23;;;;;;;26.60;16.97;;;14.00;99.90;;;;;;4700956;30;20276;-84
2022/10/17 01:59:53;;;;;;;31.37;17.77;;;14.10;99.90;;;;;;4701041;30;20660;-85
2022/10/17 02:02:25;;;;;;;28.93;17.53;;;14.10;99.90;;;;;;4714936;30;20277;-85
2022/10/17 02:04:54;;;;;;;29.47;17.73;;;14.10;99.90;;;;;;4700343;30;20218;-84
2022/10/17 02:07:21;;;;;;;27.03;16.97;;;14.10;99.90;;;;;;4700531;30;20272;-84
2022/10/17 02:09:48;;;;;;;25.70;16.10;;;14.10;99.90;;;;;;4700592;30;20358;-84
2022/10/17 02:12:23;;;;;;;26.00;16.43;;;14.00;99.90;;;;;;4700628;30;20219;-84
2022/10/17 02:15:18;;;;;;;26.30;16.43;;;14.00;99.90;;;;;;4757398;30;20208;-84
2022/10/17 02:17:58;;;;;;;27.53;16.47;;;13.90;99.90;;;;;;4768432;30;20208;-84
2022/10/17 02:20:53;;;;;;;26.80;16.73;;;13.90;99.90;;;;;;4768415;30;20220;-81
2022/10/17 02:23:52;;;;;;;26.00;15.90;;;13.80;99.90;;;;;;4768811;30;20213;-81
2022/10/17 02:26:35;;;;;;;27.60;17.03;;;13.70;99.90;;;;;;4717322;30;20328;-81
2022/10/17 02:29:12;;;;;;;24.97;15.97;;;13.60;99.90;;;;;;4717518;30;20211;-84
2022/10/17 02:31:50;;;;;;;27.17;16.23;;;13.60;99.90;;;;;;4717679;30;20209;-85
2022/10/17 02:34:49;;;;;;;27.10;15.57;;;13.60;99.90;;;;;;4717485;30;20293;-86
2022/10/17 02:37:21;;;;;;;25.53;15.90;;;13.50;99.90;;;;;;4700110;30;20335;-83
2022/10/17 02:39:49;;;;;;;28.17;16.57;;;13.40;99.90;;;;;;4686021;30;20212;-82
2022/10/17 02:42:18;;;;;;;27.17;15.93;;;13.30;99.90;;;;;;4686556;30;20584;-84
2022/10/17 02:44:46;;;;;;;25.60;15.97;;;13.30;99.90;;;;;;4702962;30;20218;-86
2022/10/17 02:47:32;;;;;;;25.70;16.30;;;13.20;99.90;;;;;;4685636;30;20239;-85
2022/10/17 02:49:59;;;;;;;28.67;15.57;;;13.10;99.90;;;;;;4685983;30;20229;-86
2022/10/17 02:52:37;;;;;;;24.67;15.77;;;13.10;99.90;;;;;;4700273;30;20243;-86
2022/10/17 02:55:23;;;;;;;24.60;15.47;;;13.00;99.90;;;;;;4685785;30;20214;-86
2022/10/17 02:57:55;;;;;;;27.20;15.67;;;13.00;99.90;;;;;;4685506;30;20664;-85
2022/10/17 03:00:25;;;;;;;29.17;16.73;;;13.00;99.90;;;;;;4700406;30;20239;-83
2022/10/17 03:02:53;;;;;;;30.67;16.80;;;13.00;99.90;;;;;;4691765;30;20235;-80
2022/10/17 03:05:28;;;;;;;25.47;15.73;;;13.00;99.90;;;;;;4702929;30;20252;-83
2022/10/17 03:07:55;;;;;;;25.67;16.77;;;13.00;99.90;;;;;;4720247;30;20229;-83
2022/10/17 03:10:22;;;;;;;27.73;16.50;;;13.00;99.90;;;;;;4734968;30;20264;-84
2022/10/17 03:12:49;;;;;;;30.37;18.73;;;12.90;99.90;;;;;;4722597;30;20210;-85
2022/10/17 03:15:16;;;;;;;30.93;17.50;;;12.90;99.90;;;;;;4753258;30;20252;-85
2022/10/17 03:17:43;;;;;;;29.60;18.37;;;12.80;99.90;;;;;;4753258;30;20649;-84
2022/10/17 03:20:11;;;;;;;26.30;16.87;;;12.80;99.90;;;;;;4754777;30;20216;-84
2022/10/17 03:22:38;;;;;;;29.17;16.80;;;12.90;99.90;;;;;;4754542;30;20568;-84
2022/10/17 03:25:05;;;;;;;30.33;17.57;;;12.90;99.90;;;;;;4772361;30;20264;-86
2022/10/17 03:27:32;;;;;;;29.47;18.20;;;12.90;99.90;;;;;;4771028;30;20290;-85
2022/10/17 03:29:59;;;;;;;26.20;16.90;;;12.90;99.90;;;;;;4771031;30;20255;-87
2022/10/17 03:32:26;;;;;;;30.40;17.90;;;13.00;99.90;;;;;;4772316;30;20231;-87
2022/10/17 03:34:52;;;;;;;30.30;17.87;;;13.00;99.90;;;;;;4770411;30;20212;-83
2022/10/17 03:37:19;;;;;;;30.67;18.57;;;13.00;99.90;;;;;;4770492;30;20684;-84
2022/10/17 03:39:46;;;;;;;33.60;19.70;;;13.00;99.90;;;;;;4771723;30;20678;-83
2022/10/17 03:42:13;;;;;;;31.80;19.10;;;13.00;99.90;;;;;;4771872;30;20196;-83
2022/10/17 03:44:40;;;;;;;34.50;19.60;;;13.00;99.90;;;;;;4770000;30;20204;-81
2022/10/17 03:47:07;;;;;;;33.43;19.60;;;13.00;99.90;;;;;;4769152;30;20233;-84
2022/10/17 03:49:39;;;;;;;30.33;18.47;;;13.00;99.90;;;;;;4770146;30;20311;-83
2022/10/17 03:52:11;;;;;;;31.43;19.07;;;13.10;99.90;;;;;;4770416;30;20233;-83
2022/10/17 03:54:38;;;;;;;35.07;18.93;;;13.00;99.90;;;;;;4771702;30;20549;-82
2022/10/17 03:57:05;;;;;;;29.87;18.63;;;13.00;99.90;;;;;;4773067;30;20212;-81
2022/10/17 03:59:32;;;;;;;32.10;18.37;;;13.00;99.90;;;;;;4770732;30;20212;-82
2022/10/17 04:01:58;;;;;;;32.20;19.87;;;13.00;99.90;;;;;;4769587;30;20277;-83
2022/10/17 04:04:25;;;;;;;30.70;18.77;;;13.00;99.90;;;;;;4769962;30;20542;-84
2022/10/17 04:06:52;;;;;;;32.53;19.47;;;13.00;99.90;;;;;;4769944;30;20307;-83
2022/10/17 04:09:19;;;;;;;32.63;20.53;;;13.00;99.90;;;;;;4771087;30;20197;-83
2022/10/17 04:11:46;;;;;;;32.23;19.63;;;13.00;99.90;;;;;;4770953;30;20648;-82
2022/10/17 04:14:13;;;;;;;35.23;20.67;;;13.00;99.90;;;;;;4770026;30;20197;-84
2022/10/17 04:16:40;;;;;;;31.20;19.43;;;13.00;99.90;;;;;;4769781;30;20203;-84
2022/10/17 04:19:06;;;;;;;31.77;19.33;;;13.00;99.90;;;;;;4770026;30;20205;-85
2022/10/17 04:21:33;;;;;;;31.63;18.73;;;13.00;99.90;;;;;;4769508;30;20197;-84
2022/10/17 04:24:00;;;;;;;30.80;19.23;;;13.00;99.90;;;;;;4770725;30;20205;-84
2022/10/17 04:26:27;;;;;;;31.27;18.70;;;12.90;99.90;;;;;;4769759;30;20205;-82
2022/10/17 04:28:54;;;;;;;29.43;18.73;;;12.90;99.90;;;;;;4769605;30;20232;-82
2022/10/17 04:31:21;;;;;;;27.50;18.50;;;12.90;99.90;;;;;;4769454;30;20656;-81
2022/10/17 04:33:49;;;;;;;27.93;17.63;;;12.90;99.90;;;;;;4769487;30;20209;-82
2022/10/17 04:36:18;;;;;;;29.47;18.00;;;12.80;99.90;;;;;;4770616;30;20212;-82
2022/10/17 04:38:45;;;;;;;29.90;17.23;;;12.80;99.90;;;;;;4768993;30;20224;-80
2022/10/17 04:41:15;;;;;;;31.10;17.97;;;12.70;99.90;;;;;;4769577;30;20209;-81
2022/10/17 04:43:42;;;;;;;29.60;18.50;;;12.70;99.90;;;;;;4769283;30;20732;-83
2022/10/17 04:46:14;;;;;;;32.17;18.57;;;12.70;99.90;;;;;;4770066;30;20244;-83
2022/10/17 04:48:41;;;;;;;32.83;19.00;;;12.60;99.90;;;;;;4773320;30;20225;-80
2022/10/17 04:51:14;;;;;;;31.90;18.17;;;12.60;99.90;;;;;;4771426;30;20204;-81
2022/10/17 04:53:42;;;;;;;34.10;20.43;;;12.60;99.90;;;;;;4772464;30;20617;-83
2022/10/17 04:56:16;;;;;;;33.93;19.37;;;12.60;99.90;;;;;;4772056;30;20250;-82
2022/10/17 04:58:44;;;;;;;31.07;19.37;;;12.70;99.90;;;;;;4772100;30;20212;-82
2022/10/17 05:01:14;;;;;;;33.17;20.67;;;12.60;99.90;;;;;;4788668;30;20211;-82
2022/10/17 05:03:41;;;;;;;30.10;18.50;;;12.60;99.90;;;;;;4772129;30;20231;-81
2022/10/17 05:06:11;;;;;;;33.33;20.33;;;12.60;99.90;;;;;;4771364;30;20213;-79
2022/10/17 05:08:37;;;;;;;37.60;20.50;;;12.60;99.90;;;;;;4772187;30;20760;-83
2022/10/17 05:11:13;;;;;;;36.23;21.60;;;12.60;99.90;;;;;;4771778;30;20624;-83
2022/10/17 05:13:40;;;;;;;39.33;21.57;;;12.60;99.90;;;;;;4771912;30;20215;-82
2022/10/17 05:16:07;;;;;;;37.53;22.53;;;12.60;99.90;;;;;;4771775;30;20362;-81
2022/10/17 05:18:34;;;;;;;37.17;22.17;;;12.60;99.90;;;;;;4787910;30;20189;-82
2022/10/17 05:21:03;;;;;;;39.17;21.93;;;12.60;99.90;;;;;;4771787;30;20208;-82
2022/10/17 05:23:30;;;;;;;37.83;21.67;;;12.60;99.90;;;;;;4771825;30;20203;-83
2022/10/17 05:25:56;;;;;;;37.67;22.20;;;12.60;99.90;;;;;;4771670;30;20200;-83
2022/10/17 05:28:23;;;;;;;36.90;22.67;;;12.60;99.90;;;;;;4770914;30;20231;-84
2022/10/17 05:30:50;;;;;;;41.67;23.90;;;12.70;99.90;;;;;;4771780;30;20200;-82
2022/10/17 05:33:17;;;;;;;37.40;22.83;;;12.70;99.90;;;;;;4764522;30;20213;-85
2022/10/17 05:35:44;;;;;;;37.37;21.77;;;12.80;99.90;;;;;;4772341;30;20716;-84
2022/10/17 05:38:11;;;;;;;38.53;22.33;;;12.80;99.90;;;;;;4775124;30;20663;-85
2022/10/17 05:40:38;;;;;;;40.43;22.30;;;12.80;99.90;;;;;;4783829;30;20239;-82
2022/10/17 05:43:05;;;;;;;37.67;22.50;;;12.80;99.90;;;;;;4796414;30;20216;-85
2022/10/17 05:45:32;;;;;;;40.57;23.37;;;12.80;99.90;;;;;;4787989;30;20241;-81
2022/10/17 05:47:58;;;;;;;41.90;23.37;;;12.90;99.90;;;;;;4771925;30;20229;-84
2022/10/17 05:50:25;;;;;;;37.60;22.10;;;12.90;99.90;;;;;;4787716;29;20222;-84
2022/10/17 05:52:53;;;;;;;37.60;22.97;;;13.00;99.90;;;;;;4772401;30;20634;-84
2022/10/17 05:55:21;;;;;;;36.87;22.10;;;13.00;99.90;;;;;;4786365;29;20216;-85
2022/10/17 05:57:49;;;;;;;35.97;21.43;;;13.10;99.90;;;;;;4756642;30;20276;-87
2022/10/17 06:00:16;;;;;;;40.23;21.53;;;13.10;99.90;;;;;;4788462;29;20204;-87
2022/10/17 06:02:58;;;;;;;36.13;21.20;;;13.20;99.90;;;;;;4788128;30;20234;-82
2022/10/17 06:05:25;;;;;;;38.83;21.40;;;13.20;99.90;;;;;;4772267;30;20261;-80
2022/10/17 06:07:52;;;;;;;33.77;20.40;;;13.30;99.90;;;;;;4771655;30;20701;-84
2022/10/17 06:10:26;;;;;;;33.30;20.57;;;13.40;99.90;;;;;;4788563;29;20200;-86
2022/10/17 06:12:55;;;;;;;33.40;19.40;;;13.40;99.90;;;;;;4772314;30;20234;-84
2022/10/17 06:15:24;;;;;;;34.23;20.03;;;13.50;99.90;;;;;;4773618;30;20294;-84
2022/10/17 06:17:51;;;;;;;33.80;19.47;;;13.50;99.90;;;;;;4772367;30;20212;-83
2022/10/17 06:20:18;;;;;;;30.40;19.23;;;13.50;99.90;;;;;;4773107;30;20308;-82
2022/10/17 06:22:45;;;;;;;32.03;19.70;;;13.50;99.90;;;;;;4772971;30;20212;-83
2022/10/17 06:25:12;;;;;;;29.13;18.30;;;13.50;99.90;;;;;;4790738;30;20214;-81
2022/10/17 06:27:40;;;;;;;30.17;19.27;;;13.50;99.90;;;;;;4776602;30;20228;-83
2022/10/17 06:30:07;;;;;;;31.53;18.90;;;13.50;99.90;;;;;;4774848;30;20240;-86
2022/10/17 06:32:41;;;;;;;31.43;18.70;;;13.60;99.90;;;;;;4774337;30;20611;-83
2022/10/17 06:35:08;;;;;;;32.93;19.63;;;13.60;99.90;;;;;;4791672;29;20282;-84
2022/10/17 06:37:36;;;;;;;30.77;18.10;;;13.70;99.90;;;;;;4774837;30;20209;-83
2022/10/17 06:40:06;;;;;;;33.23;19.63;;;13.70;99.90;;;;;;4775295;30;20583;-79
2022/10/17 06:42:33;;;;;;;31.27;19.33;;;13.70;99.90;;;;;;4774168;30;20198;-84
2022/10/17 06:45:00;;;;;;;32.87;19.53;;;13.70;99.90;;;;;;4772760;30;20267;-82
2022/10/17 06:47:27;;;;;;;33.00;20.37;;;13.80;99.90;;;;;;4770602;30;20211;-83
2022/10/17 06:49:54;;;;;;;36.10;19.23;;;13.90;99.90;;;;;;4774968;30;20211;-84
2022/10/17 06:52:22;;;;;;;37.17;20.13;;;13.90;99.90;;;;;;4772131;30;20237;-80
2022/10/17 06:54:50;;;;;;;32.90;20.50;;;14.00;99.90;;;;;;4773134;30;20202;-84
2022/10/17 06:57:34;;;;;;;35.70;21.17;;;14.20;99.90;;;;;;4771390;30;20233;-81
2022/10/17 07:00:01;;;;;;;31.87;19.57;;;14.30;99.90;;;;;;4772534;30;20205;-85
2022/10/17 07:02:28;;;;;;;32.77;19.87;;;14.40;99.90;;;;;;4771979;30;20227;-86
2022/10/17 07:04:56;;;;;;;34.90;20.17;;;14.50;99.90;;;;;;4773084;30;20259;-87
2022/10/17 07:07:23;;;;;;;33.07;20.83;;;14.60;99.90;;;;;;4768983;30;20212;-85
2022/10/17 07:09:50;;;;;;;34.03;20.93;;;14.60;99.90;;;;;;4772959;30;20687;-84
2022/10/17 07:12:17;;;;;;;42.83;21.27;;;14.80;99.90;;;;;;4771715;30;20223;-85
2022/10/17 07:14:46;;;;;;;35.27;21.20;;;14.80;99.90;;;;;;4770900;30;20209;-81
2022/10/17 07:17:12;;;;;;;37.63;20.33;;;14.90;99.90;;;;;;4771333;30;20598;-77
2022/10/17 07:19:39;;;;;;;36.17;21.13;;;15.00;99.90;;;;;;4767052;30;20205;-82
2022/10/17 07:22:06;;;;;;;34.13;19.70;;;15.10;99.90;;;;;;4769845;30;20201;-86
2022/10/17 07:24:33;;;;;;;37.10;19.73;;;15.10;99.90;;;;;;4769272;30;20511;-85
2022/10/17 07:27:00;;;;;;;32.57;19.80;;;15.20;99.90;;;;;;4756189;30;20216;-85
2022/10/17 07:29:28;;;;;;;30.93;19.20;;;15.40;99.90;;;;;;4771474;30;20228;-86
2022/10/17 07:31:54;;;;;;;29.03;18.70;;;15.40;99.90;;;;;;4768482;30;20248;-84
2022/10/17 07:34:26;;;;;;;32.17;19.23;;;15.50;99.90;;;;;;4769926;30;20219;-88
2022/10/17 07:36:53;;;;;;;32.17;18.83;;;15.60;99.90;;;;;;4755881;30;20228;-87
2022/10/17 07:39:20;;;;;;;34.07;18.93;;;15.80;99.90;;;;;;4770787;30;20263;-85
2022/10/17 07:41:48;;;;;;;32.57;18.57;;;16.00;99.90;;;;;;4769310;30;20657;-83
2022/10/17 07:44:15;;;;;;;30.63;19.07;;;16.00;99.90;;;;;;4765365;30;20216;-78
2022/10/17 07:46:42;;;;;;;34.90;18.80;;;16.10;99.90;;;;;;4767089;30;20201;-76
2022/10/17 07:49:09;;;;;;;33.30;18.37;;;16.30;99.90;;;;;;4763155;30;20322;-80
2022/10/17 07:51:36;;;;;;;32.60;18.37;;;16.80;99.90;;;;;;4766985;30;20596;-75
2022/10/17 07:54:04;;;;;;;29.30;17.97;;;17.50;99.90;;;;;;4778793;29;20213;-80
2022/10/17 07:56:32;;;;;;;27.90;16.80;;;18.00;99.90;;;;;;4766476;30;20215;-81
2022/10/17 07:58:59;;;;;;;28.63;16.53;;;18.30;99.90;;;;;;4768732;30;20204;-79
2022/10/17 08:01:30;;;;;;;26.93;17.40;;;18.50;99.90;;;;;;4767468;30;20271;-86
2022/10/17 08:03:57;;;;;;;29.63;17.50;;;18.70;99.90;;;;;;4768730;30;20229;-92
2022/10/17 08:06:24;;;;;;;30.53;17.17;;;18.80;99.90;;;;;;4777666;30;20635;-84
2022/10/17 08:08:52;;;;;;;28.83;16.67;;;19.00;99.90;;;;;;4760959;30;20237;-83
2022/10/17 08:11:24;;;;;;;25.37;16.20;;;19.30;99.90;;;;;;4785422;24;20728;-82
2022/10/17 08:14:13;;;;;;;29.00;16.63;;;19.60;99.90;;;;;;4791098;29;20244;-83
2022/10/17 08:16:54;;;;;;;22.03;15.13;;;20.00;99.90;;;;;;4769292;24;20588;-79
2022/10/17 08:19:21;;;;;;;24.37;15.93;;;20.20;99.90;;;;;;4738032;30;20221;-82
2022/10/17 08:21:48;;;;;;;26.90;16.03;;;20.00;99.90;;;;;;4767952;30;20296;-87
2022/10/17 08:24:17;;;;;;;26.40;15.40;;;20.00;99.90;;;;;;4767649;30;20210;-79
2022/10/17 08:26:44;;;;;;;22.83;15.40;;;19.90;99.90;;;;;;4752291;30;20299;-96
2022/10/17 08:29:15;;;;;;;23.60;15.27;;;19.70;99.90;;;;;;4767700;30;20656;-91
2022/10/17 08:31:43;;;;;;;26.63;15.63;;;19.60;99.90;;;;;;4766690;30;20213;-88
2022/10/17 08:34:19;;;;;;;26.20;15.63;;;19.70;99.90;;;;;;4765911;30;20205;-80
2022/10/17 08:36:47;;;;;;;26.27;15.70;;;19.80;99.90;;;;;;4766700;30;20267;-77
2022/10/17 08:39:14;;;;;;;24.40;15.60;;;19.90;99.90;;;;;;4766049;30;20210;-78
2022/10/17 08:42:08;;;;;;;23.67;14.53;;;20.00;99.90;;;;;;4751783;30;20545;-89
2022/10/17 08:44:53;;;;;;;26.07;15.03;;;20.20;99.90;;;;;;4755436;30;20576;-93
2022/10/17 08:47:44;;;;;;;22.47;15.40;;;20.60;99.90;;;;;;4753882;30;20206;-87
2022/10/17 08:50:44;;;;;;;23.97;14.93;;;20.70;99.90;;;;;;4767641;30;20234;-94
2022/10/17 08:53:50;;;;;;;23.73;14.70;;;20.70;99.90;;;;;;4751012;30;20236;-85
2022/10/17 08:56:22;;;;;;;23.73;14.57;;;21.10;99.90;;;;;;4762956;24;20241;-92
2022/10/17 08:59:29;;;;;;;24.40;15.13;;;21.00;99.90;;;;;;4769143;30;20232;-87
2022/10/17 09:05:04;;;;;;;24.80;14.57;;;21.50;99.90;;;;;;4760877;24;20245;-85
2022/10/17 09:15:00;;;;;;;20.73;14.07;;;22.70;99.90;;;;;;5095301;22;20224;-84
2022/10/17 09:18:02;;;;;;;25.03;14.40;;;23.20;99.90;;;;;;5008691;28;20213;-78
2022/10/17 09:20:44;;;;;;;22.23;14.07;;;23.10;99.90;;;;;;5010884;28;20202;-79
2022/10/17 09:23:50;;;;;;;20.30;13.90;;;23.50;99.90;;;;;;5026821;28;20696;-80
2022/10/17 09:26:35;;;;;;;22.73;13.73;;;23.90;99.90;;;;;;4973235;28;20209;-79
2022/10/17 09:29:11;;;;;;;22.77;14.30;;;23.60;99.90;;;;;;4973455;28;20220;-86
2022/10/17 09:31:44;;;;;;;25.43;14.17;;;23.80;99.90;;;;;;4991151;28;20203;-80
2022/10/17 09:34:11;;;;;;;19.67;12.83;;;23.80;99.90;;;;;;4975644;28;20283;-83
2022/10/17 09:36:39;;;;;;;20.40;13.90;;;24.10;99.90;;;;;;4991522;28;20203;-84
2022/10/17 09:39:11;;;;;;;20.95;14.15;;;24.10;99.90;;;;;;5008337;28;20207;-89
2022/10/17 09:41:43;;;;;;;23.13;14.30;;;23.50;99.90;;;;;;5008236;28;20243;-83
2022/10/17 09:44:15;;;;;;;23.90;13.38;;;23.40;99.90;;;;;;4991189;28;20504;-78
2022/10/17 09:47:23;;;;;;;20.27;13.23;;;24.10;99.90;;;;;;5007277;28;20251;-73
2022/10/17 09:49:50;;;;;;;22.30;13.50;;;24.80;99.90;;;;;;5007324;28;20227;-79
2022/10/17 09:52:21;;;;;;;19.57;13.43;;;25.20;99.90;;;;;;4991564;28;20204;-72
2022/10/17 09:54:49;;;;;;;17.67;12.65;;;25.30;99.90;;;;;;4991628;28;20607;-89
2022/10/17 09:57:18;;;;;;;20.80;13.20;;;24.80;99.90;;;;;;4991012;28;20750;-86
2022/10/17 09:59:58;;;;;;;19.30;12.85;;;25.20;99.90;;;;;;4988929;28;20205;-85
2022/10/17 10:02:28;;;;;;;19.42;13.10;;;25.20;99.90;;;;;;5019183;28;20662;-83
2022/10/17 10:05:17;;;;;;;20.27;12.25;;;25.70;99.90;;;;;;4992577;28;20216;-85
2022/10/17 10:08:11;;;;;;;19.40;13.02;;;26.00;99.90;;;;;;4997758;28;20641;-93
2022/10/17 10:10:43;;;;;;;18.63;12.60;;;26.40;99.90;;;;;;5027344;28;20281;-85
2022/10/17 10:13:13;;;;;;;22.30;12.73;;;26.40;99.90;;;;;;5018180;28;20192;-85
2022/10/17 10:15:46;;;;;;;19.92;12.70;;;26.20;99.90;;;;;;5008703;28;20203;-84
2022/10/17 10:18:25;;;;;;;19.23;12.25;;;26.60;99.90;;;;;;4991513;28;20196;-80
2022/10/17 10:21:12;;;;;;;21.90;12.77;;;26.70;99.90;;;;;;4984339;28;20228;-87
2022/10/17 10:23:42;;;;;;;18.27;12.30;;;27.20;99.90;;;;;;4978452;28;20667;-89
2022/10/17 10:26:53;;;;;;;18.08;11.70;;;27.30;99.90;;;;;;4992250;28;20205;-80
2022/10/17 10:29:36;;;;;;;17.67;12.00;;;27.60;99.90;;;;;;4975777;28;20596;-85
2022/10/17 10:32:23;;;;;;;17.75;11.82;;;27.70;99.90;;;;;;4990743;28;20204;-81
2022/10/17 10:35:06;;;;;;;19.23;11.90;;;27.40;99.90;;;;;;4992496;28;20208;-77
2022/10/17 10:37:43;;;;;;;17.33;11.82;;;27.10;99.90;;;;;;4979166;28;20270;-77
2022/10/17 10:40:46;;;;;;;19.70;11.93;;;27.00;99.90;;;;;;4992421;28;20205;-78
2022/10/17 10:43:41;;;;;;;16.10;11.30;;;27.30;99.90;;;;;;4927708;29;20216;-80
2022/10/17 10:46:23;;;;;;;16.95;11.65;;;27.20;99.90;;;;;;4940336;29;20203;-82
2022/10/17 10:49:13;;;;;;;19.02;11.57;;;27.50;99.90;;;;;;4903688;29;20278;-82
2022/10/17 10:51:49;;;;;;;17.40;11.60;;;27.30;99.90;;;;;;4933071;29;20293;-78
2022/10/17 10:54:25;;;;;;;20.38;11.50;;;27.30;99.90;;;;;;4940680;29;20206;-77
2022/10/17 10:56:55;;;;;;;21.02;12.50;;;27.00;99.90;;;;;;4923839;29;20325;-79
2022/10/17 10:59:57;;;;;;;17.42;11.55;;;27.30;99.90;;;;;;4943886;29;20203;-82
2022/10/17 11:02:52;;;;;;;18.15;12.10;;;27.30;99.90;;;;;;4947414;29;20309;-82
2022/10/17 11:05:38;;;;;;;19.50;12.23;;;27.80;99.90;;;;;;4918593;29;20530;-78
2022/10/17 11:08:21;;;;;;;20.00;12.00;;;28.00;99.90;;;;;;4934989;29;20581;-78
2022/10/17 11:11:02;;;;;;;19.58;11.30;;;28.00;99.90;;;;;;4916559;29;20697;-78
2022/10/17 11:17:04;;;;;;;18.23;12.30;;;27.50;99.90;;;;;;4965782;28;20228;-82
2022/10/17 11:20:31;;;;;;;17.80;12.10;;;27.50;99.90;;;;;;4964754;28;20677;-84
2022/10/17 11:23:53;;;;;;;22.30;11.38;;;27.90;99.90;;;;;;4961566;28;20195;-88
2022/10/17 11:27:04;;;;;;;16.38;11.50;;;28.30;99.90;;;;;;4967934;23;20240;-84
2022/10/17 11:29:40;;;;;;;19.05;11.52;;;28.30;98.80;;;;;;4966546;28;20225;-85
2022/10/17 11:34:49;;;;;;;16.38;11.45;;;29.20;98.10;;;;;;4959819;28;20234;-82
2022/10/17 11:37:31;;;;;;;16.48;11.23;;;29.40;97.00;;;;;;4973820;28;20208;-81
2022/10/17 11:40:20;;;;;;;17.02;11.30;;;29.80;96.50;;;;;;4992258;28;20205;-82
2022/10/17 11:43:13;;;;;;;15.82;10.70;;;29.70;94.90;;;;;;5027379;23;20303;-81
2022/10/17 11:46:06;;;;;;;16.20;11.50;;;29.50;95.30;;;;;;4986535;28;20224;-79
2022/10/17 11:49:23;;;;;;;20.33;11.75;;;29.30;94.90;;;;;;5003457;23;20225;-81
2022/10/17 11:52:25;;;;;;;17.33;11.25;;;29.90;94.50;;;;;;4980254;23;20331;-81
2022/10/17 11:55:37;;;;;;;18.13;11.23;;;30.00;93.90;;;;;;4931830;29;20290;-82
2022/10/17 11:59:14;;;;;;;16.23;11.60;;;30.10;93.30;;;;;;4927357;23;20552;-80
2022/10/17 12:01:53;;;;;;;17.88;11.02;;;30.50;92.60;;;;;;4938778;29;20205;-81
2022/10/17 12:05:09;;;;;;;15.23;11.02;;;29.90;92.50;;;;;;4954245;28;20221;-78
2022/10/17 12:08:19;;;;;;;16.95;11.80;;;30.00;92.90;;;;;;4955245;29;20576;-81
2022/10/17 12:14:42;;;;;;;18.42;10.82;;;30.70;91.80;;;;;;4937084;29;20253;-81
2022/10/17 12:17:31;;;;;;;17.48;11.25;;;31.40;90.10;;;;;;5432423;23;20232;-82
2022/10/17 12:21:12;;;;;;;15.35;10.98;;;31.00;90.00;;;;;;4993547;28;20436;-86
2022/10/17 12:31:24;;;;;;;20.38;11.10;;;30.60;86.90;;;;;;5253037;23;21002;-84
2022/10/17 12:34:30;;;;;;;15.40;10.57;;;31.20;87.00;;;;;;4981134;23;20960;-82
2022/10/17 12:38:04;;;;;;;14.38;10.63;;;31.40;84.80;;;;;;4959347;28;20228;-85
2022/10/17 12:47:58;;;;;;;15.07;10.57;;;29.70;87.80;;;;;;5008761;23;20327;-84
2022/10/17 13:58:56;;;;;;;18.27;12.00;;;23.00;99.90;;;;;;1985901;24;20239;-82
2022/10/17 14:09:48;;;;;;;17.20;11.20;;;22.70;99.90;;;;;;2678342;24;20221;-89
2022/10/17 14:12:23;;;;;;;20.00;11.90;;;22.80;99.90;;;;;;4782766;29;20661;-87
2022/10/17 14:28:34;;;;;;;20.20;12.40;;;22.60;99.90;;;;;;4190398;24;20241;-84
2022/10/17 14:41:56;;;;;;;20.58;13.35;;;22.40;99.90;;;;;;4790822;30;20526;-84
2022/10/17 14:48:38;;;;;;;;;;;;;;;;;;;;;
2022/10/17 14:51:26;;;;;;;21.17;11.93;;;22.20;99.90;;;;;;4786452;30;20216;-84
2022/10/17 14:54:34;;;;;;;22.37;12.10;;;22.10;99.90;;;;;;4782346;29;20231;-85
2022/10/17 14:57:13;;;;;;;19.30;11.97;;;22.00;99.90;;;;;;4766884;30;20209;-83
2022/10/17 14:59:56;;;;;;;18.30;11.53;;;21.90;99.90;;;;;;4770257;30;20265;-84
2022/10/17 15:07:44;;;;;;;21.27;12.27;;;21.60;99.90;;;;;;4740973;23;20239;-84
2022/10/17 15:10:42;;;;;;;18.10;12.03;;;21.50;99.90;;;;;;4787605;24;20613;-85
2022/10/17 15:16:23;;;;;;;19.33;11.87;;;21.30;99.90;;;;;;4934454;24;20231;-86
2022/10/17 15:19:14;;;;;;;18.67;12.17;;;21.30;99.90;;;;;;4734653;30;20213;-88
2022/10/17 15:21:59;;;;;;;21.97;12.40;;;21.20;99.90;;;;;;4746117;30;20213;-88
2022/10/17 15:26:57;;;;;;;20.63;12.33;;;21.00;99.90;;;;;;4798875;24;20722;-85
2022/10/17 15:29:24;;;;;;;25.30;12.43;;;20.90;99.90;;;;;;4916041;24;20341;-81
2022/10/17 15:38:35;;;;;;;22.67;12.90;;;20.50;99.90;;;;;;4799851;24;20298;-83
2022/10/17 15:41:09;;;;;;;20.83;12.60;;;20.50;99.90;;;;;;4785287;29;20731;-85
2022/10/17 15:43:36;;;;;;;19.47;12.70;;;20.50;99.90;;;;;;4784680;29;20653;-82
2022/10/17 15:46:04;;;;;;;20.00;12.97;;;20.40;99.90;;;;;;4784737;30;20565;-82
2022/10/17 15:48:34;;;;;;;22.83;13.40;;;20.30;99.90;;;;;;4770304;30;20235;-84